sensor_id;sensor_type;location;lat;lon;timestamp;pressure;altitude;pressure_sealevel;temperature;humidity
19736;BME280;32064;49.310;8.646;2022-08-05T00:01:17;100049.34;;;30.70;39.73
19736;BME280;32064;49.310;8.646;2022-08-05T00:03:43;100057.41;;;30.65;40.10
19736;BME280;32064;49.310;8.646;2022-08-05T00:06:09;100068.53;;;30.63;40.60
19736;BME280;32064;49.310;8.646;2022-08-05T00:08:36;100080.13;;;30.59;41.27
19736;BME280;32064;49.310;8.646;2022-08-05T00:11:05;100075.03;;;30.62;41.63
19736;BME280;32064;49.310;8.646;2022-08-05T00:13:33;100073.63;;;30.60;41.60
19736;BME280;32064;49.310;8.646;2022-08-05T00:15:58;100075.53;;;30.59;41.90
19736;BME280;32064;49.310;8.646;2022-08-05T00:18:24;100084.94;;;30.52;41.75
19736;BME280;32064;49.310;8.646;2022-08-05T00:20:49;100089.19;;;30.48;42.24
19736;BME280;32064;49.310;8.646;2022-08-05T00:23:15;100072.47;;;30.39;42.68
19736;BME280;32064;49.310;8.646;2022-08-05T00:25:40;100073.06;;;30.41;42.81
19736;BME280;32064;49.310;8.646;2022-08-05T00:28:06;100081.44;;;30.39;42.50
19736;BME280;32064;49.310;8.646;2022-08-05T00:30:31;100080.03;;;30.37;42.21
19736;BME280;32064;49.310;8.646;2022-08-05T00:32:57;100085.56;;;30.25;43.40
19736;BME280;32064;49.310;8.646;2022-08-05T00:35:22;100094.41;;;30.20;43.52
19736;BME280;32064;49.310;8.646;2022-08-05T00:37:47;100088.53;;;30.12;43.50
19736;BME280;32064;49.310;8.646;2022-08-05T00:40:13;100088.06;;;30.15;44.03
19736;BME280;32064;49.310;8.646;2022-08-05T00:42:38;100089.88;;;30.09;43.68
19736;BME280;32064;49.310;8.646;2022-08-05T00:45:05;100095.63;;;30.13;44.08
19736;BME280;32064;49.310;8.646;2022-08-05T00:47:32;100107.53;;;30.12;44.40
19736;BME280;32064;49.310;8.646;2022-08-05T00:49:57;100089.13;;;30.14;44.46
19736;BME280;32064;49.310;8.646;2022-08-05T00:52:23;100104.00;;;30.11;44.50
19736;BME280;32064;49.310;8.646;2022-08-05T00:54:49;100099.31;;;30.07;44.59
19736;BME280;32064;49.310;8.646;2022-08-05T00:57:14;100100.97;;;30.08;45.43
19736;BME280;32064;49.310;8.646;2022-08-05T00:59:40;100097.16;;;30.09;45.57
19736;BME280;32064;49.310;8.646;2022-08-05T01:02:05;100095.34;;;29.97;46.42
19736;BME280;32064;49.310;8.646;2022-08-05T01:04:33;100084.84;;;30.01;46.33
19736;BME280;32064;49.310;8.646;2022-08-05T01:06:59;100078.13;;;29.92;46.83
19736;BME280;32064;49.310;8.646;2022-08-05T01:09:24;100071.66;;;29.93;46.52
19736;BME280;32064;49.310;8.646;2022-08-05T01:11:52;100065.97;;;29.94;46.83
19736;BME280;32064;49.310;8.646;2022-08-05T01:14:25;100064.56;;;29.92;47.24
19736;BME280;32064;49.310;8.646;2022-08-05T01:17:10;100064.97;;;29.84;47.02
19736;BME280;32064;49.310;8.646;2022-08-05T01:19:58;100056.59;;;29.85;46.85
19736;BME280;32064;49.310;8.646;2022-08-05T01:25:28;100034.25;;;29.66;48.28
19736;BME280;32064;49.310;8.646;2022-08-05T01:33:34;100017.09;;;29.49;48.16
19736;BME280;32064;49.310;8.646;2022-08-05T01:36:07;100010.16;;;29.41;49.20
19736;BME280;32064;49.310;8.646;2022-08-05T01:38:35;100012.88;;;29.41;48.83
19736;BME280;32064;49.310;8.646;2022-08-05T01:41:02;100013.94;;;29.40;49.34
19736;BME280;32064;49.310;8.646;2022-08-05T01:43:29;100016.44;;;29.42;48.78
19736;BME280;32064;49.310;8.646;2022-08-05T01:45:56;100030.53;;;29.44;48.48
19736;BME280;32064;49.310;8.646;2022-08-05T01:48:24;100045.66;;;29.40;49.48
19736;BME280;32064;49.310;8.646;2022-08-05T01:50:51;100050.50;;;29.38;49.46
19736;BME280;32064;49.310;8.646;2022-08-05T01:53:19;100050.97;;;29.35;49.58
19736;BME280;32064;49.310;8.646;2022-08-05T01:55:48;100062.63;;;29.35;49.24
19736;BME280;32064;49.310;8.646;2022-08-05T01:58:15;100052.16;;;29.39;49.72
19736;BME280;32064;49.310;8.646;2022-08-05T02:00:44;100043.91;;;29.34;49.13
19736;BME280;32064;49.310;8.646;2022-08-05T02:03:15;100046.94;;;29.37;50.04
19736;BME280;32064;49.310;8.646;2022-08-05T02:05:43;100043.75;;;29.40;49.80
19736;BME280;32064;49.310;8.646;2022-08-05T02:08:09;100037.19;;;29.36;49.05
19736;BME280;32064;49.310;8.646;2022-08-05T02:10:40;100033.28;;;29.32;49.15
19736;BME280;32064;49.310;8.646;2022-08-05T02:13:13;100043.09;;;29.33;49.91
19736;BME280;32064;49.310;8.646;2022-08-05T02:15:49;100039.63;;;29.38;50.10
19736;BME280;32064;49.310;8.646;2022-08-05T02:20:48;100040.59;;;29.31;49.53
19736;BME280;32064;49.310;8.646;2022-08-05T02:23:19;100048.75;;;29.31;49.65
19736;BME280;32064;49.310;8.646;2022-08-05T02:25:48;100062.28;;;29.31;50.02
19736;BME280;32064;49.310;8.646;2022-08-05T02:28:15;100066.41;;;29.34;49.89
19736;BME280;32064;49.310;8.646;2022-08-05T02:30:47;100069.34;;;29.32;50.28
19736;BME280;32064;49.310;8.646;2022-08-05T02:33:16;100067.00;;;29.36;49.64
19736;BME280;32064;49.310;8.646;2022-08-05T02:35:44;100070.53;;;29.37;50.01
19736;BME280;32064;49.310;8.646;2022-08-05T02:38:11;100084.69;;;29.39;50.14
19736;BME280;32064;49.310;8.646;2022-08-05T02:40:40;100095.53;;;29.39;49.32
19736;BME280;32064;49.310;8.646;2022-08-05T02:43:06;100102.00;;;29.38;49.53
19736;BME280;32064;49.310;8.646;2022-08-05T02:45:35;100097.88;;;29.35;49.72
19736;BME280;32064;49.310;8.646;2022-08-05T02:48:01;100086.81;;;29.37;49.64
19736;BME280;32064;49.310;8.646;2022-08-05T02:50:28;100077.59;;;29.38;49.58
19736;BME280;32064;49.310;8.646;2022-08-05T02:52:54;100079.25;;;29.39;49.88
19736;BME280;32064;49.310;8.646;2022-08-05T02:55:21;100090.81;;;29.34;50.10
19736;BME280;32064;49.310;8.646;2022-08-05T02:57:48;100091.03;;;29.32;50.41
19736;BME280;32064;49.310;8.646;2022-08-05T03:00:15;100103.56;;;29.34;50.29
19736;BME280;32064;49.310;8.646;2022-08-05T03:02:43;100112.50;;;29.34;50.08
19736;BME280;32064;49.310;8.646;2022-08-05T03:05:10;100116.03;;;29.35;50.25
19736;BME280;32064;49.310;8.646;2022-08-05T03:07:38;100100.25;;;29.31;50.11
19736;BME280;32064;49.310;8.646;2022-08-05T03:10:06;100094.22;;;29.29;50.13
19736;BME280;32064;49.310;8.646;2022-08-05T03:12:33;100109.19;;;29.32;51.08
19736;BME280;32064;49.310;8.646;2022-08-05T03:14:59;100113.31;;;29.35;50.00
19736;BME280;32064;49.310;8.646;2022-08-05T03:17:25;100104.59;;;29.32;49.83
19736;BME280;32064;49.310;8.646;2022-08-05T03:19:52;100096.94;;;29.29;50.79
19736;BME280;32064;49.310;8.646;2022-08-05T03:22:18;100100.13;;;29.26;50.54
19736;BME280;32064;49.310;8.646;2022-08-05T03:24:44;100084.69;;;29.27;50.60
19736;BME280;32064;49.310;8.646;2022-08-05T03:27:11;100076.81;;;29.25;51.33
19736;BME280;32064;49.310;8.646;2022-08-05T03:29:37;100068.81;;;29.19;51.07
19736;BME280;32064;49.310;8.646;2022-08-05T03:32:05;100069.88;;;29.18;51.18
19736;BME280;32064;49.310;8.646;2022-08-05T03:34:32;100050.44;;;29.09;51.35
19736;BME280;32064;49.310;8.646;2022-08-05T03:36:59;100057.75;;;29.08;50.68
19736;BME280;32064;49.310;8.646;2022-08-05T03:39:25;100075.06;;;29.07;50.89
19736;BME280;32064;49.310;8.646;2022-08-05T03:41:50;100110.84;;;28.98;51.43
19736;BME280;32064;49.310;8.646;2022-08-05T03:44:16;100147.97;;;28.97;51.08
19736;BME280;32064;49.310;8.646;2022-08-05T03:46:41;100180.25;;;28.99;51.90
19736;BME280;32064;49.310;8.646;2022-08-05T03:49:06;100203.56;;;29.00;52.01
19736;BME280;32064;49.310;8.646;2022-08-05T03:51:39;100214.63;;;28.98;52.15
19736;BME280;32064;49.310;8.646;2022-08-05T03:54:15;100225.47;;;28.98;53.05
19736;BME280;32064;49.310;8.646;2022-08-05T03:56:44;100208.38;;;28.98;52.32
19736;BME280;32064;49.310;8.646;2022-08-05T03:59:26;100187.88;;;28.90;53.81
19736;BME280;32064;49.310;8.646;2022-08-05T04:01:54;100198.72;;;28.90;54.03
19736;BME280;32064;49.310;8.646;2022-08-05T04:04:20;100216.16;;;28.82;54.39
19736;BME280;32064;49.310;8.646;2022-08-05T04:06:48;100228.81;;;28.70;57.64
19736;BME280;32064;49.310;8.646;2022-08-05T04:09:14;100251.88;;;28.61;58.05
19736;BME280;32064;49.310;8.646;2022-08-05T04:11:41;100227.16;;;28.57;59.84
19736;BME280;32064;49.310;8.646;2022-08-05T04:14:06;100215.50;;;28.57;60.45
19736;BME280;32064;49.310;8.646;2022-08-05T04:16:33;100229.75;;;28.34;60.40
19736;BME280;32064;49.310;8.646;2022-08-05T04:19:02;100245.47;;;28.07;60.37
19736;BME280;32064;49.310;8.646;2022-08-05T04:21:28;100253.59;;;27.88;62.32
19736;BME280;32064;49.310;8.646;2022-08-05T04:23:55;100272.03;;;27.73;62.05
19736;BME280;32064;49.310;8.646;2022-08-05T04:26:20;100268.88;;;27.58;62.66
19736;BME280;32064;49.310;8.646;2022-08-05T04:28:45;100280.94;;;27.55;63.44
19736;BME280;32064;49.310;8.646;2022-08-05T04:31:11;100283.69;;;27.48;62.60
19736;BME280;32064;49.310;8.646;2022-08-05T04:33:37;100291.38;;;27.26;63.07
19736;BME280;32064;49.310;8.646;2022-08-05T04:36:02;100304.97;;;27.13;63.53
19736;BME280;32064;49.310;8.646;2022-08-05T04:38:28;100303.72;;;27.09;62.69
19736;BME280;32064;49.310;8.646;2022-08-05T04:40:53;100309.97;;;27.09;63.22
19736;BME280;32064;49.310;8.646;2022-08-05T04:43:18;100308.47;;;27.14;62.04
19736;BME280;32064;49.310;8.646;2022-08-05T04:45:44;100319.28;;;27.14;62.30
19736;BME280;32064;49.310;8.646;2022-08-05T04:48:11;100324.28;;;27.17;61.76
19736;BME280;32064;49.310;8.646;2022-08-05T04:50:38;100332.44;;;27.03;61.43
19736;BME280;32064;49.310;8.646;2022-08-05T04:53:04;100339.50;;;27.04;61.73
19736;BME280;32064;49.310;8.646;2022-08-05T04:55:30;100347.78;;;27.09;61.81
19736;BME280;32064;49.310;8.646;2022-08-05T04:57:55;100352.59;;;27.07;61.87
19736;BME280;32064;49.310;8.646;2022-08-05T05:00:20;100364.41;;;27.13;61.38
19736;BME280;32064;49.310;8.646;2022-08-05T05:02:46;100372.09;;;27.16;60.75
19736;BME280;32064;49.310;8.646;2022-08-05T05:05:11;100384.56;;;27.10;60.87
19736;BME280;32064;49.310;8.646;2022-08-05T05:07:37;100390.41;;;27.07;60.13
19736;BME280;32064;49.310;8.646;2022-08-05T05:10:02;100393.59;;;26.98;59.83
19736;BME280;32064;49.310;8.646;2022-08-05T05:12:30;100392.72;;;26.97;59.24
19736;BME280;32064;49.310;8.646;2022-08-05T05:14:55;100390.03;;;26.97;58.81
19736;BME280;32064;49.310;8.646;2022-08-05T05:17:21;100400.63;;;26.99;58.81
19736;BME280;32064;49.310;8.646;2022-08-05T05:19:46;100397.06;;;27.05;59.09
19736;BME280;32064;49.310;8.646;2022-08-05T05:22:11;100405.75;;;27.14;59.56
19736;BME280;32064;49.310;8.646;2022-08-05T05:24:37;100403.44;;;27.24;59.16
19736;BME280;32064;49.310;8.646;2022-08-05T05:27:02;100398.38;;;27.34;58.67
19736;BME280;32064;49.310;8.646;2022-08-05T05:29:28;100400.25;;;27.34;59.26
19736;BME280;32064;49.310;8.646;2022-08-05T05:31:53;100400.88;;;27.36;59.16
19736;BME280;32064;49.310;8.646;2022-08-05T05:34:21;100393.13;;;27.39;58.11
19736;BME280;32064;49.310;8.646;2022-08-05T05:36:46;100367.72;;;27.47;58.16
19736;BME280;32064;49.310;8.646;2022-08-05T05:39:12;100373.63;;;27.62;58.45
19736;BME280;32064;49.310;8.646;2022-08-05T05:41:37;100379.13;;;27.74;59.06
19736;BME280;32064;49.310;8.646;2022-08-05T05:44:03;100388.81;;;27.88;58.45
19736;BME280;32064;49.310;8.646;2022-08-05T05:46:28;100393.19;;;27.89;57.77
19736;BME280;32064;49.310;8.646;2022-08-05T05:48:54;100399.59;;;27.95;57.99
19736;BME280;32064;49.310;8.646;2022-08-05T05:51:21;100407.44;;;28.03;58.20
19736;BME280;32064;49.310;8.646;2022-08-05T05:53:47;100397.19;;;28.05;57.91
19736;BME280;32064;49.310;8.646;2022-08-05T05:56:12;100396.91;;;28.13;57.13
19736;BME280;32064;49.310;8.646;2022-08-05T05:58:38;100390.06;;;28.11;57.63
19736;BME280;32064;49.310;8.646;2022-08-05T06:01:03;100399.50;;;28.08;57.23
19736;BME280;32064;49.310;8.646;2022-08-05T06:03:28;100394.91;;;28.09;57.56
19736;BME280;32064;49.310;8.646;2022-08-05T06:05:54;100405.66;;;28.15;56.78
19736;BME280;32064;49.310;8.646;2022-08-05T06:08:19;100403.94;;;28.21;57.37
19736;BME280;32064;49.310;8.646;2022-08-05T06:10:45;100404.09;;;28.26;56.57
19736;BME280;32064;49.310;8.646;2022-08-05T06:13:10;100400.47;;;28.32;57.77
19736;BME280;32064;49.310;8.646;2022-08-05T06:15:36;100391.91;;;28.35;57.71
19736;BME280;32064;49.310;8.646;2022-08-05T06:18:01;100389.00;;;28.37;56.32
19736;BME280;32064;49.310;8.646;2022-08-05T06:20:26;100388.59;;;28.33;57.21
19736;BME280;32064;49.310;8.646;2022-08-05T06:22:52;100386.75;;;28.34;56.81
19736;BME280;32064;49.310;8.646;2022-08-05T06:25:17;100381.31;;;28.34;56.04
19736;BME280;32064;49.310;8.646;2022-08-05T06:27:43;100376.34;;;28.31;57.34
19736;BME280;32064;49.310;8.646;2022-08-05T06:30:09;100371.69;;;28.38;56.15
19736;BME280;32064;49.310;8.646;2022-08-05T06:32:40;100369.06;;;28.50;57.06
19736;BME280;32064;49.310;8.646;2022-08-05T06:35:06;100377.31;;;28.73;55.99
19736;BME280;32064;49.310;8.646;2022-08-05T06:37:32;100395.09;;;28.87;55.42
19736;BME280;32064;49.310;8.646;2022-08-05T06:39:57;100383.41;;;28.87;55.11
19736;BME280;32064;49.310;8.646;2022-08-05T06:42:23;100393.47;;;28.98;55.43
19736;BME280;32064;49.310;8.646;2022-08-05T06:44:48;100389.19;;;29.09;54.95
19736;BME280;32064;49.310;8.646;2022-08-05T06:47:14;100392.31;;;29.24;54.61
19736;BME280;32064;49.310;8.646;2022-08-05T06:49:39;100388.69;;;29.42;54.12
19736;BME280;32064;49.310;8.646;2022-08-05T06:52:05;100390.28;;;29.62;53.62
19736;BME280;32064;49.310;8.646;2022-08-05T06:54:30;100387.47;;;29.80;53.04
19736;BME280;32064;49.310;8.646;2022-08-05T06:56:55;100399.19;;;29.92;53.19
19736;BME280;32064;49.310;8.646;2022-08-05T06:59:21;100395.41;;;30.05;52.75
19736;BME280;32064;49.310;8.646;2022-08-05T07:01:46;100398.25;;;30.22;52.00
19736;BME280;32064;49.310;8.646;2022-08-05T07:04:12;100407.22;;;30.46;51.94
19736;BME280;32064;49.310;8.646;2022-08-05T07:06:37;100400.53;;;30.77;50.52
19736;BME280;32064;49.310;8.646;2022-08-05T07:09:03;100410.41;;;30.95;50.37
19736;BME280;32064;49.310;8.646;2022-08-05T07:11:29;100402.44;;;31.34;49.41
19736;BME280;32064;49.310;8.646;2022-08-05T07:13:56;100416.56;;;31.82;47.74
19736;BME280;32064;49.310;8.646;2022-08-05T07:16:40;100416.09;;;33.28;44.92
19736;BME280;32064;49.310;8.646;2022-08-05T07:19:20;100423.69;;;32.38;47.16
19736;BME280;32064;49.310;8.646;2022-08-05T07:21:47;100427.06;;;32.62;45.78
19736;BME280;32064;49.310;8.646;2022-08-05T07:24:14;100423.69;;;32.55;46.12
19736;BME280;32064;49.310;8.646;2022-08-05T07:26:40;100436.94;;;32.30;46.06
19736;BME280;32064;49.310;8.646;2022-08-05T07:29:07;100439.50;;;32.36;46.12
19736;BME280;32064;49.310;8.646;2022-08-05T07:31:33;100440.81;;;35.08;41.61
19736;BME280;32064;49.310;8.646;2022-08-05T07:33:58;100456.19;;;37.18;37.27
19736;BME280;32064;49.310;8.646;2022-08-05T07:36:24;100441.78;;;34.72;40.83
19736;BME280;32064;49.310;8.646;2022-08-05T07:38:50;100451.03;;;35.95;39.38
19736;BME280;32064;49.310;8.646;2022-08-05T07:41:20;100462.44;;;35.10;39.89
19736;BME280;32064;49.310;8.646;2022-08-05T07:43:47;100454.75;;;34.07;42.24
19736;BME280;32064;49.310;8.646;2022-08-05T07:46:12;100454.56;;;33.54;41.77
19736;BME280;32064;49.310;8.646;2022-08-05T07:48:38;100449.72;;;33.34;42.15
19736;BME280;32064;49.310;8.646;2022-08-05T07:51:03;100440.66;;;33.28;41.76
19736;BME280;32064;49.310;8.646;2022-08-05T07:53:29;100452.47;;;33.12;42.70
19736;BME280;32064;49.310;8.646;2022-08-05T07:55:54;100450.00;;;33.92;41.56
19736;BME280;32064;49.310;8.646;2022-08-05T07:58:20;100445.66;;;34.38;40.84
19736;BME280;32064;49.310;8.646;2022-08-05T08:00:45;100454.88;;;35.94;37.56
19736;BME280;32064;49.310;8.646;2022-08-05T08:03:12;100450.16;;;36.46;37.57
19736;BME280;32064;49.310;8.646;2022-08-05T08:05:38;100445.03;;;35.88;37.79
19736;BME280;32064;49.310;8.646;2022-08-05T08:08:04;100443.09;;;36.99;36.41
19736;BME280;32064;49.310;8.646;2022-08-05T08:10:29;100435.44;;;35.75;38.72
19736;BME280;32064;49.310;8.646;2022-08-05T08:12:54;100431.53;;;35.15;38.51
19736;BME280;32064;49.310;8.646;2022-08-05T08:15:20;100448.03;;;34.67;38.78
19736;BME280;32064;49.310;8.646;2022-08-05T08:17:46;100458.16;;;34.24;39.99
19736;BME280;32064;49.310;8.646;2022-08-05T08:20:12;100451.28;;;33.84;40.57
19736;BME280;32064;49.310;8.646;2022-08-05T08:22:37;100444.34;;;33.71;40.62
19736;BME280;32064;49.310;8.646;2022-08-05T08:25:04;100453.41;;;33.50;41.39
19736;BME280;32064;49.310;8.646;2022-08-05T08:27:31;100427.28;;;33.27;41.07
19736;BME280;32064;49.310;8.646;2022-08-05T08:29:56;100431.03;;;33.21;41.65
19736;BME280;32064;49.310;8.646;2022-08-05T08:32:22;100422.78;;;33.43;41.76
19736;BME280;32064;49.310;8.646;2022-08-05T08:34:50;100400.84;;;35.02;38.90
19736;BME280;32064;49.310;8.646;2022-08-05T08:37:16;100384.38;;;34.87;38.79
19736;BME280;32064;49.310;8.646;2022-08-05T08:39:42;100384.47;;;35.23;38.79
19736;BME280;32064;49.310;8.646;2022-08-05T08:42:09;100368.06;;;35.74;37.87
19736;BME280;32064;49.310;8.646;2022-08-05T08:44:35;100351.09;;;35.11;39.35
19736;BME280;32064;49.310;8.646;2022-08-05T08:47:02;100333.91;;;34.37;38.62
19736;BME280;32064;49.310;8.646;2022-08-05T08:49:29;100346.97;;;33.82;40.41
19736;BME280;32064;49.310;8.646;2022-08-05T08:52:02;100335.97;;;33.40;40.33
19736;BME280;32064;49.310;8.646;2022-08-05T08:54:30;100328.41;;;33.15;40.89
19736;BME280;32064;49.310;8.646;2022-08-05T08:56:56;100316.16;;;32.90;41.00
19736;BME280;32064;49.310;8.646;2022-08-05T08:59:22;100321.50;;;32.80;40.72
19736;BME280;32064;49.310;8.646;2022-08-05T09:01:48;100320.03;;;32.72;40.87
19736;BME280;32064;49.310;8.646;2022-08-05T09:04:14;100314.19;;;32.85;41.45
19736;BME280;32064;49.310;8.646;2022-08-05T09:06:40;100316.34;;;33.38;40.17
19736;BME280;32064;49.310;8.646;2022-08-05T09:09:06;100309.25;;;33.42;39.31
19736;BME280;32064;49.310;8.646;2022-08-05T09:11:32;100318.69;;;33.29;39.92
19736;BME280;32064;49.310;8.646;2022-08-05T09:13:58;100326.59;;;33.25;39.83
19736;BME280;32064;49.310;8.646;2022-08-05T09:16:26;100330.88;;;33.16;39.87
19736;BME280;32064;49.310;8.646;2022-08-05T09:18:51;100343.00;;;33.03;41.09
19736;BME280;32064;49.310;8.646;2022-08-05T09:21:17;100349.75;;;32.96;40.49
19736;BME280;32064;49.310;8.646;2022-08-05T09:23:44;100350.44;;;32.86;39.27
19736;BME280;32064;49.310;8.646;2022-08-05T09:26:13;100350.91;;;32.78;40.10
19736;BME280;32064;49.310;8.646;2022-08-05T09:28:46;100363.72;;;32.77;40.32
19736;BME280;32064;49.310;8.646;2022-08-05T09:31:13;100365.38;;;32.78;39.48
19736;BME280;32064;49.310;8.646;2022-08-05T09:33:51;100374.75;;;32.87;38.61
19736;BME280;32064;49.310;8.646;2022-08-05T09:36:17;100375.81;;;33.08;38.71
19736;BME280;32064;49.310;8.646;2022-08-05T09:39:00;100387.69;;;33.24;38.17
19736;BME280;32064;49.310;8.646;2022-08-05T09:41:26;100386.19;;;33.71;37.82
19736;BME280;32064;49.310;8.646;2022-08-05T09:43:51;100406.41;;;35.64;35.23
19736;BME280;32064;49.310;8.646;2022-08-05T09:46:31;100396.44;;;37.49;32.13
19736;BME280;32064;49.310;8.646;2022-08-05T09:48:58;100397.47;;;38.40;31.17
19736;BME280;32064;49.310;8.646;2022-08-05T09:51:36;100399.56;;;39.11;30.67
19736;BME280;32064;49.310;8.646;2022-08-05T09:54:03;100395.03;;;39.85;29.85
19736;BME280;32064;49.310;8.646;2022-08-05T09:56:32;100377.53;;;40.36;29.26
19736;BME280;32064;49.310;8.646;2022-08-05T10:01:28;100375.50;;;41.82;27.38
19736;BME280;32064;49.310;8.646;2022-08-05T10:06:32;100377.28;;;42.75;26.14
19736;BME280;32064;49.310;8.646;2022-08-05T10:09:18;100384.56;;;42.71;25.53
19736;BME280;32064;49.310;8.646;2022-08-05T10:11:49;100383.63;;;43.11;25.93
19736;BME280;32064;49.310;8.646;2022-08-05T10:14:29;100388.38;;;43.19;24.46
19736;BME280;32064;49.310;8.646;2022-08-05T10:17:11;100382.34;;;43.25;24.63
19736;BME280;32064;49.310;8.646;2022-08-05T10:19:36;100388.16;;;43.50;25.22
19736;BME280;32064;49.310;8.646;2022-08-05T10:22:02;100381.00;;;43.49;25.10
19736;BME280;32064;49.310;8.646;2022-08-05T10:24:30;100378.69;;;43.60;24.65
19736;BME280;32064;49.310;8.646;2022-08-05T10:26:57;100375.31;;;43.92;24.80
19736;BME280;32064;49.310;8.646;2022-08-05T10:29:24;100384.00;;;43.82;24.24
19736;BME280;32064;49.310;8.646;2022-08-05T10:31:51;100386.88;;;43.47;24.33
19736;BME280;32064;49.310;8.646;2022-08-05T10:34:16;100383.13;;;43.43;24.81
19736;BME280;32064;49.310;8.646;2022-08-05T10:36:42;100383.16;;;43.17;24.79
19736;BME280;32064;49.310;8.646;2022-08-05T10:39:20;100393.56;;;42.94;23.91
19736;BME280;32064;49.310;8.646;2022-08-05T10:42:10;100386.09;;;43.30;23.48
19736;BME280;32064;49.310;8.646;2022-08-05T10:44:38;100398.94;;;43.60;23.46
19736;BME280;32064;49.310;8.646;2022-08-05T10:47:11;100395.09;;;44.00;23.02
19736;BME280;32064;49.310;8.646;2022-08-05T10:52:43;100386.56;;;43.40;22.74
19736;BME280;32064;49.310;8.646;2022-08-05T10:55:12;100389.34;;;43.40;22.79
19736;BME280;32064;49.310;8.646;2022-08-05T10:57:39;100390.00;;;43.55;23.18
19736;BME280;32064;49.310;8.646;2022-08-05T11:00:15;100381.97;;;43.53;23.09
19736;BME280;32064;49.310;8.646;2022-08-05T11:05:29;100380.06;;;44.60;23.02
19736;BME280;32064;49.310;8.646;2022-08-05T11:08:14;100382.81;;;44.39;22.80
19736;BME280;32064;49.310;8.646;2022-08-05T11:10:39;100369.41;;;44.11;22.84
19736;BME280;32064;49.310;8.646;2022-08-05T11:13:07;100383.16;;;44.58;22.58
19736;BME280;32064;49.310;8.646;2022-08-05T11:15:36;100389.09;;;44.19;22.67
19736;BME280;32064;49.310;8.646;2022-08-05T11:20:44;100397.47;;;44.69;23.05
19736;BME280;32064;49.310;8.646;2022-08-05T11:35:56;100404.50;;;43.17;23.88
19736;BME280;32064;49.310;8.646;2022-08-05T11:43:31;100401.34;;;42.66;24.29
19736;BME280;32064;49.310;8.646;2022-08-05T11:45:58;100403.66;;;41.84;25.08
19736;BME280;32064;49.310;8.646;2022-08-05T11:48:24;100398.34;;;41.65;25.82
19736;BME280;32064;49.310;8.646;2022-08-05T11:50:51;100403.69;;;41.39;25.94
19736;BME280;32064;49.310;8.646;2022-08-05T11:53:17;100402.72;;;41.21;26.40
19736;BME280;32064;49.310;8.646;2022-08-05T11:55:52;100402.06;;;40.66;27.30
19736;BME280;32064;49.310;8.646;2022-08-05T11:58:30;100394.97;;;40.18;28.13
19736;BME280;32064;49.310;8.646;2022-08-05T12:01:02;100401.28;;;39.91;28.32
19736;BME280;32064;49.310;8.646;2022-08-05T12:03:28;100405.91;;;39.95;27.80
19736;BME280;32064;49.310;8.646;2022-08-05T12:05:58;100412.03;;;39.73;28.45
19736;BME280;32064;49.310;8.646;2022-08-05T12:08:23;100416.38;;;39.09;28.92
19736;BME280;32064;49.310;8.646;2022-08-05T12:10:50;100416.28;;;38.95;29.02
19736;BME280;32064;49.310;8.646;2022-08-05T12:13:16;100414.47;;;38.85;29.40
19736;BME280;32064;49.310;8.646;2022-08-05T12:15:45;100414.13;;;38.92;30.05
19736;BME280;32064;49.310;8.646;2022-08-05T12:18:17;100420.84;;;38.81;30.84
19736;BME280;32064;49.310;8.646;2022-08-05T12:20:42;100417.00;;;38.39;31.55
19736;BME280;32064;49.310;8.646;2022-08-05T12:23:09;100413.06;;;37.92;31.46
19736;BME280;32064;49.310;8.646;2022-08-05T12:25:48;100414.06;;;37.72;32.37
19736;BME280;32064;49.310;8.646;2022-08-05T12:28:37;100410.91;;;37.60;32.86
19736;BME280;32064;49.310;8.646;2022-08-05T12:31:03;100417.59;;;37.48;33.03
19736;BME280;32064;49.310;8.646;2022-08-05T12:33:30;100413.88;;;37.63;32.56
19736;BME280;32064;49.310;8.646;2022-08-05T12:35:56;100412.63;;;37.06;33.68
19736;BME280;32064;49.310;8.646;2022-08-05T12:38:22;100425.25;;;36.97;34.08
19736;BME280;32064;49.310;8.646;2022-08-05T12:40:48;100420.88;;;37.06;34.06
19736;BME280;32064;49.310;8.646;2022-08-05T12:43:14;100426.03;;;37.13;34.01
19736;BME280;32064;49.310;8.646;2022-08-05T12:45:53;100424.00;;;37.28;33.82
19736;BME280;32064;49.310;8.646;2022-08-05T12:48:19;100431.41;;;37.28;33.78
19736;BME280;32064;49.310;8.646;2022-08-05T12:51:11;100426.34;;;37.06;34.11
19736;BME280;32064;49.310;8.646;2022-08-05T12:53:44;100429.53;;;36.69;34.72
19736;BME280;32064;49.310;8.646;2022-08-05T12:56:23;100423.34;;;36.27;35.54
19736;BME280;32064;49.310;8.646;2022-08-05T12:59:21;100443.03;;;36.45;35.08
19736;BME280;32064;49.310;8.646;2022-08-05T13:02:05;100444.38;;;36.57;34.70
19736;BME280;32064;49.310;8.646;2022-08-05T13:04:33;100443.88;;;36.35;35.51
19736;BME280;32064;49.310;8.646;2022-08-05T13:07:01;100447.66;;;36.59;34.74
19736;BME280;32064;49.310;8.646;2022-08-05T13:09:27;100453.69;;;36.51;34.99
19736;BME280;32064;49.310;8.646;2022-08-05T13:12:08;100458.44;;;36.30;35.03
19736;BME280;32064;49.310;8.646;2022-08-05T13:14:42;100458.69;;;36.03;35.72
19736;BME280;32064;49.310;8.646;2022-08-05T13:17:22;100463.63;;;36.32;35.32
19736;BME280;32064;49.310;8.646;2022-08-05T13:20:13;100459.53;;;36.24;35.81
19736;BME280;32064;49.310;8.646;2022-08-05T13:22:50;100459.56;;;36.09;35.33
19736;BME280;32064;49.310;8.646;2022-08-05T13:25:17;100462.28;;;36.09;35.60
19736;BME280;32064;49.310;8.646;2022-08-05T13:27:49;100451.06;;;35.90;35.62
19736;BME280;32064;49.310;8.646;2022-08-05T13:30:16;100461.19;;;35.89;35.60
19736;BME280;32064;49.310;8.646;2022-08-05T13:32:42;100467.50;;;35.90;35.96
19736;BME280;32064;49.310;8.646;2022-08-05T13:35:11;100462.03;;;35.59;36.72
19736;BME280;32064;49.310;8.646;2022-08-05T13:37:38;100463.31;;;35.46;36.14